sensor_id;sensor_type;location;lat;lon;timestamp;temperature;humidity
66119;DHT22;52912;48.564;9.302;2023-05-07T00:00:56;15.03;81.10
66119;DHT22;52912;48.564;9.302;2023-05-07T00:03:22;15.06;81.45
66119;DHT22;52912;48.564;9.302;2023-05-07T00:05:47;14.85;81.86
66119;DHT22;52912;48.564;9.302;2023-05-07T00:08:13;14.87;81.70
66119;DHT22;52912;48.564;9.302;2023-05-07T00:10:38;14.74;82.15
66119;DHT22;52912;48.564;9.302;2023-05-07T00:13:04;14.78;82.18
66119;DHT22;52912;48.564;9.302;2023-05-07T00:15:30;14.72;82.38
66119;DHT22;52912;48.564;9.302;2023-05-07T00:17:56;14.65;82.58
66119;DHT22;52912;48.564;9.302;2023-05-07T00:20:21;14.70;82.59
66119;DHT22;52912;48.564;9.302;2023-05-07T00:22:47;14.67;83.03
66119;DHT22;52912;48.564;9.302;2023-05-07T00:25:12;14.50;83.19
66119;DHT22;52912;48.564;9.302;2023-05-07T00:27:37;14.54;83.50
66119;DHT22;52912;48.564;9.302;2023-05-07T00:30:04;14.47;84.00
66119;DHT22;52912;48.564;9.302;2023-05-07T00:32:31;14.41;83.66
66119;DHT22;52912;48.564;9.302;2023-05-07T00:34:56;14.32;83.57
66119;DHT22;52912;48.564;9.302;2023-05-07T00:37:22;14.40;83.41
66119;DHT22;52912;48.564;9.302;2023-05-07T00:39:47;14.29;83.81
66119;DHT22;52912;48.564;9.302;2023-05-07T00:42:12;14.20;84.56
66119;DHT22;52912;48.564;9.302;2023-05-07T00:44:38;14.22;84.14
66119;DHT22;52912;48.564;9.302;2023-05-07T00:47:05;14.34;83.87
66119;DHT22;52912;48.564;9.302;2023-05-07T00:49:38;14.22;84.40
66119;DHT22;52912;48.564;9.302;2023-05-07T00:52:04;14.06;84.83
66119;DHT22;52912;48.564;9.302;2023-05-07T00:54:30;14.19;84.51
66119;DHT22;52912;48.564;9.302;2023-05-07T00:56:56;14.10;84.64
66119;DHT22;52912;48.564;9.302;2023-05-07T00:59:21;14.16;84.66
66119;DHT22;52912;48.564;9.302;2023-05-07T01:01:47;14.06;84.95
66119;DHT22;52912;48.564;9.302;2023-05-07T01:04:12;14.09;84.79
66119;DHT22;52912;48.564;9.302;2023-05-07T01:06:40;14.06;84.94
66119;DHT22;52912;48.564;9.302;2023-05-07T01:09:06;13.94;85.12
66119;DHT22;52912;48.564;9.302;2023-05-07T01:11:32;13.78;85.69
66119;DHT22;52912;48.564;9.302;2023-05-07T01:13:58;13.91;85.24
66119;DHT22;52912;48.564;9.302;2023-05-07T01:16:24;13.91;85.35
66119;DHT22;52912;48.564;9.302;2023-05-07T01:18:50;13.82;85.62
66119;DHT22;52912;48.564;9.302;2023-05-07T01:21:16;13.67;85.93
66119;DHT22;52912;48.564;9.302;2023-05-07T01:23:44;13.57;86.66
66119;DHT22;52912;48.564;9.302;2023-05-07T01:26:09;13.58;86.34
66119;DHT22;52912;48.564;9.302;2023-05-07T01:28:35;13.43;86.61
66119;DHT22;52912;48.564;9.302;2023-05-07T01:31:02;13.60;86.57
66119;DHT22;52912;48.564;9.302;2023-05-07T01:33:31;13.58;86.65
66119;DHT22;52912;48.564;9.302;2023-05-07T01:35:57;13.46;86.76
66119;DHT22;52912;48.564;9.302;2023-05-07T01:38:24;13.48;87.06
66119;DHT22;52912;48.564;9.302;2023-05-07T01:40:51;13.50;87.03
66119;DHT22;52912;48.564;9.302;2023-05-07T01:43:17;13.32;87.32
66119;DHT22;52912;48.564;9.302;2023-05-07T01:45:42;13.50;86.96
66119;DHT22;52912;48.564;9.302;2023-05-07T01:48:09;13.40;87.39
66119;DHT22;52912;48.564;9.302;2023-05-07T01:50:35;13.37;87.30
66119;DHT22;52912;48.564;9.302;2023-05-07T01:53:02;13.43;87.42
66119;DHT22;52912;48.564;9.302;2023-05-07T01:55:27;13.37;87.54
66119;DHT22;52912;48.564;9.302;2023-05-07T01:57:54;13.18;88.23
66119;DHT22;52912;48.564;9.302;2023-05-07T02:00:20;13.16;88.31
66119;DHT22;52912;48.564;9.302;2023-05-07T02:02:46;13.01;88.90
66119;DHT22;52912;48.564;9.302;2023-05-07T02:05:11;12.94;89.12
66119;DHT22;52912;48.564;9.302;2023-05-07T02:07:37;13.08;88.77
66119;DHT22;52912;48.564;9.302;2023-05-07T02:10:02;13.03;88.64
66119;DHT22;52912;48.564;9.302;2023-05-07T02:12:28;13.05;88.49
66119;DHT22;52912;48.564;9.302;2023-05-07T02:14:55;13.08;88.21
66119;DHT22;52912;48.564;9.302;2023-05-07T02:17:20;13.12;88.34
66119;DHT22;52912;48.564;9.302;2023-05-07T02:19:45;13.12;88.59
66119;DHT22;52912;48.564;9.302;2023-05-07T02:22:11;13.23;88.38
66119;DHT22;52912;48.564;9.302;2023-05-07T02:24:36;13.12;88.52
66119;DHT22;52912;48.564;9.302;2023-05-07T02:27:02;13.11;88.92
66119;DHT22;52912;48.564;9.302;2023-05-07T02:29:27;13.08;89.03
66119;DHT22;52912;48.564;9.302;2023-05-07T02:31:54;13.06;88.87
66119;DHT22;52912;48.564;9.302;2023-05-07T02:34:20;13.01;89.03
66119;DHT22;52912;48.564;9.302;2023-05-07T02:36:45;12.96;88.76
66119;DHT22;52912;48.564;9.302;2023-05-07T02:39:12;12.98;88.91
66119;DHT22;52912;48.564;9.302;2023-05-07T02:41:38;12.91;89.37
66119;DHT22;52912;48.564;9.302;2023-05-07T02:44:03;12.81;89.47
66119;DHT22;52912;48.564;9.302;2023-05-07T02:46:29;12.85;89.28
66119;DHT22;52912;48.564;9.302;2023-05-07T02:48:56;12.85;89.15
66119;DHT22;52912;48.564;9.302;2023-05-07T02:51:22;12.77;89.39
66119;DHT22;52912;48.564;9.302;2023-05-07T02:53:48;12.77;89.65
66119;DHT22;52912;48.564;9.302;2023-05-07T02:56:13;12.69;89.74
66119;DHT22;52912;48.564;9.302;2023-05-07T02:58:39;12.75;89.57
66119;DHT22;52912;48.564;9.302;2023-05-07T03:01:04;12.67;89.83
66119;DHT22;52912;48.564;9.302;2023-05-07T03:03:29;12.77;89.56
66119;DHT22;52912;48.564;9.302;2023-05-07T03:05:56;12.74;89.43
66119;DHT22;52912;48.564;9.302;2023-05-07T03:08:22;12.67;89.54
66119;DHT22;52912;48.564;9.302;2023-05-07T03:10:47;12.65;89.55
66119;DHT22;52912;48.564;9.302;2023-05-07T03:13:13;12.58;89.81
66119;DHT22;52912;48.564;9.302;2023-05-07T03:15:38;12.49;90.23
66119;DHT22;52912;48.564;9.302;2023-05-07T03:18:04;12.41;90.18
66119;DHT22;52912;48.564;9.302;2023-05-07T03:20:29;12.53;90.06
66119;DHT22;52912;48.564;9.302;2023-05-07T03:22:56;12.44;90.38
66119;DHT22;52912;48.564;9.302;2023-05-07T03:25:22;12.33;90.43
66119;DHT22;52912;48.564;9.302;2023-05-07T03:27:47;12.28;90.63
66119;DHT22;52912;48.564;9.302;2023-05-07T03:30:13;12.33;90.48
66119;DHT22;52912;48.564;9.302;2023-05-07T03:32:38;12.11;90.88
66119;DHT22;52912;48.564;9.302;2023-05-07T03:35:04;12.09;91.18
66119;DHT22;52912;48.564;9.302;2023-05-07T03:37:30;11.98;91.90
66119;DHT22;52912;48.564;9.302;2023-05-07T03:39:57;11.96;91.69
66119;DHT22;52912;48.564;9.302;2023-05-07T03:42:22;11.99;91.41
66119;DHT22;52912;48.564;9.302;2023-05-07T03:44:48;12.04;91.24
66119;DHT22;52912;48.564;9.302;2023-05-07T03:47:13;11.95;91.51
66119;DHT22;52912;48.564;9.302;2023-05-07T03:49:39;12.02;91.41
66119;DHT22;52912;48.564;9.302;2023-05-07T03:52:04;12.11;90.89
66119;DHT22;52912;48.564;9.302;2023-05-07T03:54:30;12.05;90.70
66119;DHT22;52912;48.564;9.302;2023-05-07T03:56:57;12.04;90.68
66119;DHT22;52912;48.564;9.302;2023-05-07T03:59:22;12.04;91.13
66119;DHT22;52912;48.564;9.302;2023-05-07T04:01:48;12.02;91.16
66119;DHT22;52912;48.564;9.302;2023-05-07T04:04:13;12.09;91.01
66119;DHT22;52912;48.564;9.302;2023-05-07T04:06:39;12.19;90.56
66119;DHT22;52912;48.564;9.302;2023-05-07T04:09:04;12.13;90.38
66119;DHT22;52912;48.564;9.302;2023-05-07T04:11:29;12.12;90.42
66119;DHT22;52912;48.564;9.302;2023-05-07T04:13:56;12.06;90.52
66119;DHT22;52912;48.564;9.302;2023-05-07T04:16:22;11.99;90.93
66119;DHT22;52912;48.564;9.302;2023-05-07T04:18:47;11.98;91.01
66119;DHT22;52912;48.564;9.302;2023-05-07T04:21:16;11.96;91.18
66119;DHT22;52912;48.564;9.302;2023-05-07T04:23:41;11.87;91.37
66119;DHT22;52912;48.564;9.302;2023-05-07T04:26:07;11.94;91.22
66119;DHT22;52912;48.564;9.302;2023-05-07T04:28:32;11.91;91.13
66119;DHT22;52912;48.564;9.302;2023-05-07T04:30:59;11.75;91.67
66119;DHT22;52912;48.564;9.302;2023-05-07T04:33:25;11.85;91.43
66119;DHT22;52912;48.564;9.302;2023-05-07T04:35:50;11.74;91.91
66119;DHT22;52912;48.564;9.302;2023-05-07T04:38:15;11.53;92.60
66119;DHT22;52912;48.564;9.302;2023-05-07T04:40:41;11.51;92.72
66119;DHT22;52912;48.564;9.302;2023-05-07T04:43:07;11.59;92.50
66119;DHT22;52912;48.564;9.302;2023-05-07T04:45:32;11.67;92.34
66119;DHT22;52912;48.564;9.302;2023-05-07T04:47:59;11.74;92.00
66119;DHT22;52912;48.564;9.302;2023-05-07T04:50:24;11.66;92.24
66119;DHT22;52912;48.564;9.302;2023-05-07T04:52:50;11.63;92.50
66119;DHT22;52912;48.564;9.302;2023-05-07T04:55:15;11.66;92.31
66119;DHT22;52912;48.564;9.302;2023-05-07T04:57:41;11.71;92.22
66119;DHT22;52912;48.564;9.302;2023-05-07T05:00:07;11.81;91.84
66119;DHT22;52912;48.564;9.302;2023-05-07T05:02:33;11.95;91.87
66119;DHT22;52912;48.564;9.302;2023-05-07T05:05:00;12.09;91.31
66119;DHT22;52912;48.564;9.302;2023-05-07T05:07:25;12.12;91.54
66119;DHT22;52912;48.564;9.302;2023-05-07T05:09:50;12.22;91.32
66119;DHT22;52912;48.564;9.302;2023-05-07T05:12:16;12.36;90.71
66119;DHT22;52912;48.564;9.302;2023-05-07T05:14:41;12.36;90.55
66119;DHT22;52912;48.564;9.302;2023-05-07T05:17:07;12.44;90.60
66119;DHT22;52912;48.564;9.302;2023-05-07T05:19:32;12.64;90.21
66119;DHT22;52912;48.564;9.302;2023-05-07T05:21:59;12.73;90.11
66119;DHT22;52912;48.564;9.302;2023-05-07T05:24:24;12.88;89.64
66119;DHT22;52912;48.564;9.302;2023-05-07T05:26:51;13.02;89.32
66119;DHT22;52912;48.564;9.302;2023-05-07T05:29:18;13.12;89.03
66119;DHT22;52912;48.564;9.302;2023-05-07T05:31:43;13.30;88.51
66119;DHT22;52912;48.564;9.302;2023-05-07T05:34:08;13.54;87.84
66119;DHT22;52912;48.564;9.302;2023-05-07T05:36:34;13.63;87.28
66119;DHT22;52912;48.564;9.302;2023-05-07T05:39:01;13.57;87.66
66119;DHT22;52912;48.564;9.302;2023-05-07T05:41:26;13.86;86.87
66119;DHT22;52912;48.564;9.302;2023-05-07T05:43:52;14.10;86.18
66119;DHT22;52912;48.564;9.302;2023-05-07T05:46:17;14.25;85.74
66119;DHT22;52912;48.564;9.302;2023-05-07T05:48:42;14.23;85.77
66119;DHT22;52912;48.564;9.302;2023-05-07T05:51:08;14.26;85.74
66119;DHT22;52912;48.564;9.302;2023-05-07T05:53:33;14.18;86.34
66119;DHT22;52912;48.564;9.302;2023-05-07T05:56:00;14.30;86.47
66119;DHT22;52912;48.564;9.302;2023-05-07T05:58:26;14.27;86.49
66119;DHT22;52912;48.564;9.302;2023-05-07T06:00:52;14.59;85.78
66119;DHT22;52912;48.564;9.302;2023-05-07T06:03:17;14.56;85.45
66119;DHT22;52912;48.564;9.302;2023-05-07T06:05:43;14.71;85.00
66119;DHT22;52912;48.564;9.302;2023-05-07T06:08:08;14.72;84.86
66119;DHT22;52912;48.564;9.302;2023-05-07T06:10:35;14.82;84.51
66119;DHT22;52912;48.564;9.302;2023-05-07T06:13:02;14.95;84.72
66119;DHT22;52912;48.564;9.302;2023-05-07T06:15:27;15.05;84.05
66119;DHT22;52912;48.564;9.302;2023-05-07T06:17:53;15.13;83.98
66119;DHT22;52912;48.564;9.302;2023-05-07T06:20:18;15.26;83.22
66119;DHT22;52912;48.564;9.302;2023-05-07T06:22:44;15.40;83.17
66119;DHT22;52912;48.564;9.302;2023-05-07T06:25:09;15.42;83.67
66119;DHT22;52912;48.564;9.302;2023-05-07T06:27:35;15.53;83.84
66119;DHT22;52912;48.564;9.302;2023-05-07T06:30:02;15.70;83.32
66119;DHT22;52912;48.564;9.302;2023-05-07T06:32:27;15.72;82.43
66119;DHT22;52912;48.564;9.302;2023-05-07T06:34:53;15.91;82.64
66119;DHT22;52912;48.564;9.302;2023-05-07T06:37:18;15.96;83.63
66119;DHT22;52912;48.564;9.302;2023-05-07T06:39:44;16.15;82.09
66119;DHT22;52912;48.564;9.302;2023-05-07T06:42:09;16.23;81.78
66119;DHT22;52912;48.564;9.302;2023-05-07T06:44:34;16.41;82.49
66119;DHT22;52912;48.564;9.302;2023-05-07T06:47:01;16.43;80.78
66119;DHT22;52912;48.564;9.302;2023-05-07T06:49:27;16.34;81.41
66119;DHT22;52912;48.564;9.302;2023-05-07T06:51:52;16.32;82.49
66119;DHT22;52912;48.564;9.302;2023-05-07T06:54:18;16.34;82.39
66119;DHT22;52912;48.564;9.302;2023-05-07T06:56:43;16.54;82.42
66119;DHT22;52912;48.564;9.302;2023-05-07T06:59:09;16.81;82.32
66119;DHT22;52912;48.564;9.302;2023-05-07T07:01:34;16.84;80.84
66119;DHT22;52912;48.564;9.302;2023-05-07T07:04:01;16.79;80.98
66119;DHT22;52912;48.564;9.302;2023-05-07T07:06:26;16.78;81.98
66119;DHT22;52912;48.564;9.302;2023-05-07T07:08:52;16.67;81.31
66119;DHT22;52912;48.564;9.302;2023-05-07T07:11:17;16.77;81.40
66119;DHT22;52912;48.564;9.302;2023-05-07T07:13:43;16.91;80.30
66119;DHT22;52912;48.564;9.302;2023-05-07T07:16:08;16.91;80.60
66119;DHT22;52912;48.564;9.302;2023-05-07T07:18:34;17.01;80.36
66119;DHT22;52912;48.564;9.302;2023-05-07T07:21:00;17.12;80.72
66119;DHT22;52912;48.564;9.302;2023-05-07T07:23:26;17.09;79.90
66119;DHT22;52912;48.564;9.302;2023-05-07T07:25:51;17.24;80.18
66119;DHT22;52912;48.564;9.302;2023-05-07T07:28:17;17.12;79.99
66119;DHT22;52912;48.564;9.302;2023-05-07T07:30:42;17.43;79.29
66119;DHT22;52912;48.564;9.302;2023-05-07T07:33:08;17.51;80.18
66119;DHT22;52912;48.564;9.302;2023-05-07T07:35:33;17.66;80.02
66119;DHT22;52912;48.564;9.302;2023-05-07T07:38:00;17.84;79.31
66119;DHT22;52912;48.564;9.302;2023-05-07T07:40:26;18.08;78.41
66119;DHT22;52912;48.564;9.302;2023-05-07T07:42:52;18.41;77.51
66119;DHT22;52912;48.564;9.302;2023-05-07T07:45:17;18.48;78.79
66119;DHT22;52912;48.564;9.302;2023-05-07T07:47:43;18.51;77.91
66119;DHT22;52912;48.564;9.302;2023-05-07T07:50:09;18.54;79.12
66119;DHT22;52912;48.564;9.302;2023-05-07T07:52:35;18.63;78.18
66119;DHT22;52912;48.564;9.302;2023-05-07T07:55:02;18.60;77.37
66119;DHT22;52912;48.564;9.302;2023-05-07T07:57:27;18.67;78.21
66119;DHT22;52912;48.564;9.302;2023-05-07T07:59:53;18.78;77.71
66119;DHT22;52912;48.564;9.302;2023-05-07T08:02:18;18.87;77.34
66119;DHT22;52912;48.564;9.302;2023-05-07T08:04:44;18.87;77.85
66119;DHT22;52912;48.564;9.302;2023-05-07T08:07:09;18.85;77.44
66119;DHT22;52912;48.564;9.302;2023-05-07T08:09:35;18.84;76.85
66119;DHT22;52912;48.564;9.302;2023-05-07T08:12:02;18.85;76.02
66119;DHT22;52912;48.564;9.302;2023-05-07T08:14:27;18.63;77.72
66119;DHT22;52912;48.564;9.302;2023-05-07T08:16:53;18.75;77.02
66119;DHT22;52912;48.564;9.302;2023-05-07T08:19:18;18.48;77.18
66119;DHT22;52912;48.564;9.302;2023-05-07T08:21:44;18.48;78.64
66119;DHT22;52912;48.564;9.302;2023-05-07T08:24:09;18.76;77.82
66119;DHT22;52912;48.564;9.302;2023-05-07T08:26:35;19.05;76.76
66119;DHT22;52912;48.564;9.302;2023-05-07T08:29:01;19.18;75.71
66119;DHT22;52912;48.564;9.302;2023-05-07T08:31:27;19.50;74.91
66119;DHT22;52912;48.564;9.302;2023-05-07T08:33:52;19.81;75.32
66119;DHT22;52912;48.564;9.302;2023-05-07T08:36:18;20.17;73.45
66119;DHT22;52912;48.564;9.302;2023-05-07T08:38:43;20.36;73.43
66119;DHT22;52912;48.564;9.302;2023-05-07T08:41:10;20.54;73.21
66119;DHT22;52912;48.564;9.302;2023-05-07T08:43:36;20.78;73.66
66119;DHT22;52912;48.564;9.302;2023-05-07T08:46:04;20.70;72.86
66119;DHT22;52912;48.564;9.302;2023-05-07T08:48:30;21.07;72.00
66119;DHT22;52912;48.564;9.302;2023-05-07T08:50:58;21.41;71.63
66119;DHT22;52912;48.564;9.302;2023-05-07T08:53:23;21.37;72.41
66119;DHT22;52912;48.564;9.302;2023-05-07T08:55:49;21.62;71.61
66119;DHT22;52912;48.564;9.302;2023-05-07T08:58:15;21.85;72.21
66119;DHT22;52912;48.564;9.302;2023-05-07T09:00:41;21.75;71.24
66119;DHT22;52912;48.564;9.302;2023-05-07T09:03:08;21.89;71.48
66119;DHT22;52912;48.564;9.302;2023-05-07T09:05:34;22.08;69.82
66119;DHT22;52912;48.564;9.302;2023-05-07T09:07:59;22.30;69.80
66119;DHT22;52912;48.564;9.302;2023-05-07T09:10:25;22.53;69.95
66119;DHT22;52912;48.564;9.302;2023-05-07T09:12:51;22.29;69.12
66119;DHT22;52912;48.564;9.302;2023-05-07T09:15:18;22.51;69.23
66119;DHT22;52912;48.564;9.302;2023-05-07T09:17:44;22.72;69.36
66119;DHT22;52912;48.564;9.302;2023-05-07T09:20:11;22.87;69.62
66119;DHT22;52912;48.564;9.302;2023-05-07T09:22:37;23.24;69.15
66119;DHT22;52912;48.564;9.302;2023-05-07T09:25:03;23.33;69.16
66119;DHT22;52912;48.564;9.302;2023-05-07T09:27:30;23.43;67.43
66119;DHT22;52912;48.564;9.302;2023-05-07T09:29:55;23.68;66.31
66119;DHT22;52912;48.564;9.302;2023-05-07T09:32:21;23.85;67.31
66119;DHT22;52912;48.564;9.302;2023-05-07T09:34:46;23.79;67.83
66119;DHT22;52912;48.564;9.302;2023-05-07T09:37:13;23.98;67.26
66119;DHT22;52912;48.564;9.302;2023-05-07T09:39:39;23.99;67.00
66119;DHT22;52912;48.564;9.302;2023-05-07T09:42:05;24.49;67.36
66119;DHT22;52912;48.564;9.302;2023-05-07T09:44:31;24.39;64.59
66119;DHT22;52912;48.564;9.302;2023-05-07T09:47:00;24.47;64.93
66119;DHT22;52912;48.564;9.302;2023-05-07T09:49:29;24.49;63.81
66119;DHT22;52912;48.564;9.302;2023-05-07T09:51:55;24.82;62.30
66119;DHT22;52912;48.564;9.302;2023-05-07T09:54:22;24.68;60.68
66119;DHT22;52912;48.564;9.302;2023-05-07T09:56:48;24.91;58.83
66119;DHT22;52912;48.564;9.302;2023-05-07T09:59:15;24.94;59.38
66119;DHT22;52912;48.564;9.302;2023-05-07T10:01:42;25.32;60.65
66119;DHT22;52912;48.564;9.302;2023-05-07T10:04:07;25.23;58.83
66119;DHT22;52912;48.564;9.302;2023-05-07T10:06:34;25.47;58.38
66119;DHT22;52912;48.564;9.302;2023-05-07T10:09:00;25.91;58.70
66119;DHT22;52912;48.564;9.302;2023-05-07T10:11:27;25.57;57.04
66119;DHT22;52912;48.564;9.302;2023-05-07T10:13:53;25.74;56.38
66119;DHT22;52912;48.564;9.302;2023-05-07T10:16:19;25.49;59.16
66119;DHT22;52912;48.564;9.302;2023-05-07T10:18:45;26.02;58.09
66119;DHT22;52912;48.564;9.302;2023-05-07T10:21:13;26.01;57.47
66119;DHT22;52912;48.564;9.302;2023-05-07T10:23:44;25.96;57.36
66119;DHT22;52912;48.564;9.302;2023-05-07T10:26:10;26.21;57.10
66119;DHT22;52912;48.564;9.302;2023-05-07T10:28:39;26.13;57.46
66119;DHT22;52912;48.564;9.302;2023-05-07T10:31:18;26.06;57.91
66119;DHT22;52912;48.564;9.302;2023-05-07T10:33:51;25.82;56.06
66119;DHT22;52912;48.564;9.302;2023-05-07T10:36:17;26.18;54.63
66119;DHT22;52912;48.564;9.302;2023-05-07T10:38:42;26.68;54.00
66119;DHT22;52912;48.564;9.302;2023-05-07T10:41:08;26.96;53.67
66119;DHT22;52912;48.564;9.302;2023-05-07T10:43:43;26.91;53.03
66119;DHT22;52912;48.564;9.302;2023-05-07T10:46:09;26.22;53.75
66119;DHT22;52912;48.564;9.302;2023-05-07T10:49:10;26.83;53.34
66119;DHT22;52912;48.564;9.302;2023-05-07T10:51:36;27.06;53.62
66119;DHT22;52912;48.564;9.302;2023-05-07T10:54:20;26.37;54.42
66119;DHT22;52912;48.564;9.302;2023-05-07T10:56:46;25.99;53.86
66119;DHT22;52912;48.564;9.302;2023-05-07T10:59:38;26.18;54.86
66119;DHT22;52912;48.564;9.302;2023-05-07T11:02:03;25.85;54.88
66119;DHT22;52912;48.564;9.302;2023-05-07T11:04:29;25.19;55.86
66119;DHT22;52912;48.564;9.302;2023-05-07T11:07:29;25.54;55.55
66119;DHT22;52912;48.564;9.302;2023-05-07T11:10:02;25.77;55.01
66119;DHT22;52912;48.564;9.302;2023-05-07T11:12:47;25.18;56.04
66119;DHT22;52912;48.564;9.302;2023-05-07T11:15:15;25.84;55.89
66119;DHT22;52912;48.564;9.302;2023-05-07T11:17:58;26.25;54.53
66119;DHT22;52912;48.564;9.302;2023-05-07T11:20:45;26.56;53.52
66119;DHT22;52912;48.564;9.302;2023-05-07T11:26:42;25.59;55.56
66119;DHT22;52912;48.564;9.302;2023-05-07T11:29:11;25.15;55.43
66119;DHT22;52912;48.564;9.302;2023-05-07T11:31:38;25.09;55.33
66119;DHT22;52912;48.564;9.302;2023-05-07T11:34:03;24.71;57.02
66119;DHT22;52912;48.564;9.302;2023-05-07T11:36:31;24.67;56.64
66119;DHT22;52912;48.564;9.302;2023-05-07T11:38:56;24.64;56.29
66119;DHT22;52912;48.564;9.302;2023-05-07T11:41:22;24.44;56.75
66119;DHT22;52912;48.564;9.302;2023-05-07T11:43:55;24.41;57.66
66119;DHT22;52912;48.564;9.302;2023-05-07T11:46:20;24.50;58.64
66119;DHT22;52912;48.564;9.302;2023-05-07T11:48:47;24.19;58.86
66119;DHT22;52912;48.564;9.302;2023-05-07T11:51:13;23.84;60.02
66119;DHT22;52912;48.564;9.302;2023-05-07T11:53:44;22.58;60.83
66119;DHT22;52912;48.564;9.302;2023-05-07T11:56:11;21.71;62.14
66119;DHT22;52912;48.564;9.302;2023-05-07T11:58:37;20.91;62.22
66119;DHT22;52912;48.564;9.302;2023-05-07T12:01:03;20.82;64.75
66119;DHT22;52912;48.564;9.302;2023-05-07T12:03:29;20.68;65.33
66119;DHT22;52912;48.564;9.302;2023-05-07T12:05:55;20.41;64.85
66119;DHT22;52912;48.564;9.302;2023-05-07T12:08:21;20.39;65.23
66119;DHT22;52912;48.564;9.302;2023-05-07T12:10:49;20.45;65.84
66119;DHT22;52912;48.564;9.302;2023-05-07T12:13:16;20.33;68.15
66119;DHT22;52912;48.564;9.302;2023-05-07T12:15:41;20.27;66.61
66119;DHT22;52912;48.564;9.302;2023-05-07T12:18:07;20.41;67.76
66119;DHT22;52912;48.564;9.302;2023-05-07T12:20:33;20.71;67.95
66119;DHT22;52912;48.564;9.302;2023-05-07T12:23:01;20.75;70.05
66119;DHT22;52912;48.564;9.302;2023-05-07T12:25:26;20.34;69.76
66119;DHT22;52912;48.564;9.302;2023-05-07T12:27:54;20.04;71.33
66119;DHT22;52912;48.564;9.302;2023-05-07T12:30:20;19.82;72.05
66119;DHT22;52912;48.564;9.302;2023-05-07T12:32:46;19.67;73.66
66119;DHT22;52912;48.564;9.302;2023-05-07T12:35:11;19.54;75.10
66119;DHT22;52912;48.564;9.302;2023-05-07T12:37:36;19.60;75.57
66119;DHT22;52912;48.564;9.302;2023-05-07T12:40:08;19.47;76.93
66119;DHT22;52912;48.564;9.302;2023-05-07T12:42:35;19.50;77.81
66119;DHT22;52912;48.564;9.302;2023-05-07T12:45:07;19.30;78.46
66119;DHT22;52912;48.564;9.302;2023-05-07T12:47:33;19.23;78.89
66119;DHT22;52912;48.564;9.302;2023-05-07T12:49:59;19.24;79.29
66119;DHT22;52912;48.564;9.302;2023-05-07T12:52:24;19.51;78.87
66119;DHT22;52912;48.564;9.302;2023-05-07T12:54:50;19.46;78.73
66119;DHT22;52912;48.564;9.302;2023-05-07T12:57:19;19.49;78.91
66119;DHT22;52912;48.564;9.302;2023-05-07T12:59:44;19.50;78.38
66119;DHT22;52912;48.564;9.302;2023-05-07T13:02:10;19.60;78.72
66119;DHT22;52912;48.564;9.302;2023-05-07T13:04:36;19.57;78.75
66119;DHT22;52912;48.564;9.302;2023-05-07T13:07:02;19.74;79.25
66119;DHT22;52912;48.564;9.302;2023-05-07T13:09:27;19.68;79.53
66119;DHT22;52912;48.564;9.302;2023-05-07T13:11:53;19.65;80.25
66119;DHT22;52912;48.564;9.302;2023-05-07T13:14:20;19.85;81.38
66119;DHT22;52912;48.564;9.302;2023-05-07T13:16:45;19.86;80.46
66119;DHT22;52912;48.564;9.302;2023-05-07T13:19:10;19.63;76.92
66119;DHT22;52912;48.564;9.302;2023-05-07T13:21:36;19.58;78.17
66119;DHT22;52912;48.564;9.302;2023-05-07T13:24:01;19.57;78.76
66119;DHT22;52912;48.564;9.302;2023-05-07T13:26:27;19.41;76.80
66119;DHT22;52912;48.564;9.302;2023-05-07T13:28:53;19.38;75.74
66119;DHT22;52912;48.564;9.302;2023-05-07T13:31:19;19.40;76.49
66119;DHT22;52912;48.564;9.302;2023-05-07T13:33:45;19.03;77.53
66119;DHT22;52912;48.564;9.302;2023-05-07T13:36:10;18.67;78.06
66119;DHT22;52912;48.564;9.302;2023-05-07T13:38:36;18.46;80.30
66119;DHT22;52912;48.564;9.302;2023-05-07T13:41:01;18.01;81.47
66119;DHT22;52912;48.564;9.302;2023-05-07T13:43:27;17.91;82.60
66119;DHT22;52912;48.564;9.302;2023-05-07T13:45:52;17.66;83.57
66119;DHT22;52912;48.564;9.302;2023-05-07T13:48:19;17.55;84.20
66119;DHT22;52912;48.564;9.302;2023-05-07T13:50:44;17.46;85.28
66119;DHT22;52912;48.564;9.302;2023-05-07T13:53:10;17.31;85.34
66119;DHT22;52912;48.564;9.302;2023-05-07T13:55:35;17.19;85.75
66119;DHT22;52912;48.564;9.302;2023-05-07T13:58:01;17.06;86.20
66119;DHT22;52912;48.564;9.302;2023-05-07T14:00:28;16.99;86.58
66119;DHT22;52912;48.564;9.302;2023-05-07T14:02:53;17.01;87.05
66119;DHT22;52912;48.564;9.302;2023-05-07T14:05:21;16.92;88.84
66119;DHT22;52912;48.564;9.302;2023-05-07T14:07:46;16.75;88.65
66119;DHT22;52912;48.564;9.302;2023-05-07T14:10:12;16.64;89.56
66119;DHT22;52912;48.564;9.302;2023-05-07T14:12:37;16.53;89.78
66119;DHT22;52912;48.564;9.302;2023-05-07T14:15:03;16.54;90.33
66119;DHT22;52912;48.564;9.302;2023-05-07T14:17:29;16.43;90.13
66119;DHT22;52912;48.564;9.302;2023-05-07T14:19:54;16.36;90.14
66119;DHT22;52912;48.564;9.302;2023-05-07T14:22:22;16.24;90.64
66119;DHT22;52912;48.564;9.302;2023-05-07T14:24:47;16.19;91.27
66119;DHT22;52912;48.564;9.302;2023-05-07T14:27:13;16.15;90.68
66119;DHT22;52912;48.564;9.302;2023-05-07T14:29:38;16.12;90.58
66119;DHT22;52912;48.564;9.302;2023-05-07T14:32:05;16.22;90.91
66119;DHT22;52912;48.564;9.302;2023-05-07T14:34:30;16.40;91.84
66119;DHT22;52912;48.564;9.302;2023-05-07T14:36:56;16.56;90.50
66119;DHT22;52912;48.564;9.302;2023-05-07T14:39:23;16.40;91.50
66119;DHT22;52912;48.564;9.302;2023-05-07T14:41:48;16.33;92.45
66119;DHT22;52912;48.564;9.302;2023-05-07T14:44:14;16.33;91.91
66119;DHT22;52912;48.564;9.302;2023-05-07T14:46:39;16.20;92.10
66119;DHT22;52912;48.564;9.302;2023-05-07T14:49:04;16.24;93.08
66119;DHT22;52912;48.564;9.302;2023-05-07T14:51:30;16.30;92.23
66119;DHT22;52912;48.564;9.302;2023-05-07T14:53:55;16.27;92.43
66119;DHT22;52912;48.564;9.302;2023-05-07T14:56:22;16.33;92.27
66119;DHT22;52912;48.564;9.302;2023-05-07T14:58:48;16.39;92.64
66119;DHT22;52912;48.564;9.302;2023-05-07T15:01:13;16.17;92.11
66119;DHT22;52912;48.564;9.302;2023-05-07T15:03:39;16.37;92.50
66119;DHT22;52912;48.564;9.302;2023-05-07T15:06:05;16.33;92.91
66119;DHT22;52912;48.564;9.302;2023-05-07T15:08:30;16.44;91.82
66119;DHT22;52912;48.564;9.302;2023-05-07T15:10:56;16.44;92.09
66119;DHT22;52912;48.564;9.302;2023-05-07T15:13:23;16.49;92.08
66119;DHT22;52912;48.564;9.302;2023-05-07T15:15:48;16.68;91.88
66119;DHT22;52912;48.564;9.302;2023-05-07T15:18:14;16.84;90.84
66119;DHT22;52912;48.564;9.302;2023-05-07T15:20:40;16.98;90.22
66119;DHT22;52912;48.564;9.302;2023-05-07T15:23:06;17.19;91.68
66119;DHT22;52912;48.564;9.302;2023-05-07T15:25:32;17.22;89.50
66119;DHT22;52912;48.564;9.302;2023-05-07T15:27:57;17.11;88.86